createdAt,value
2017-09-19T00:01:50.330Z,45.73
2017-09-19T00:04:17.861Z,46.02
2017-09-19T00:06:45.380Z,45.81
2017-09-19T00:09:12.942Z,45.92
2017-09-19T00:11:40.928Z,46.22
2017-09-19T00:14:08.456Z,46.24
2017-09-19T00:16:36.067Z,46.24
2017-09-19T00:19:03.585Z,46.20
2017-09-19T00:21:31.700Z,46.01
2017-09-19T00:23:59.266Z,45.92
2017-09-19T00:26:26.840Z,46.00
2017-09-19T00:28:54.351Z,46.09
2017-09-19T00:31:21.948Z,46.07
2017-09-19T00:33:49.528Z,46.58
2017-09-19T00:36:17.057Z,46.40
2017-09-19T00:38:44.669Z,46.75
2017-09-19T00:41:12.444Z,46.97
2017-09-19T00:43:40.020Z,47.20
2017-09-19T00:46:07.639Z,46.52
2017-09-19T00:48:35.255Z,46.75
2017-09-19T00:51:02.819Z,46.90
2017-09-19T00:53:30.482Z,47.31
2017-09-19T00:55:58.074Z,47.46
2017-09-19T00:58:25.615Z,47.34
2017-09-19T01:00:53.196Z,47.04
2017-09-19T01:03:20.718Z,47.15
2017-09-19T01:05:48.343Z,47.46
2017-09-19T01:08:15.929Z,47.20
2017-09-19T01:10:43.755Z,47.23
2017-09-19T01:13:11.901Z,47.04
2017-09-19T01:15:39.455Z,46.93
2017-09-19T01:18:07.299Z,46.80
2017-09-19T01:20:35.091Z,46.76
2017-09-19T01:23:02.667Z,47.01
2017-09-19T01:25:30.457Z,46.91
2017-09-19T01:27:58.266Z,46.66
2017-09-19T01:30:25.870Z,46.49
2017-09-19T01:32:53.410Z,46.23
2017-09-19T01:35:20.949Z,46.33
2017-09-19T01:37:48.572Z,45.84
2017-09-19T01:40:17.905Z,45.77
2017-09-19T01:42:45.673Z,46.07
2017-09-19T01:45:13.274Z,46.05
2017-09-19T01:47:41.170Z,46.22
2017-09-19T01:50:08.777Z,46.31
2017-09-19T01:52:36.383Z,46.27
2017-09-19T01:55:03.929Z,46.28
2017-09-19T01:57:31.478Z,46.55
2017-09-19T01:59:59.053Z,45.99
2017-09-19T02:02:26.677Z,45.98
2017-09-19T02:04:54.450Z,45.90
2017-09-19T02:07:22.231Z,46.39
2017-09-19T02:09:49.785Z,46.37
2017-09-19T02:12:18.256Z,46.08
2017-09-19T02:14:46.028Z,46.04
2017-09-19T02:17:13.884Z,45.86
2017-09-19T02:19:41.437Z,46.25
2017-09-19T02:22:09.007Z,46.05
2017-09-19T02:24:36.638Z,46.58
2017-09-19T02:27:04.448Z,46.60
2017-09-19T02:29:32.130Z,46.61
2017-09-19T02:31:59.758Z,46.40
2017-09-19T02:34:27.567Z,46.82
2017-09-19T02:36:55.907Z,46.46
2017-09-19T02:39:23.965Z,46.45
2017-09-19T02:41:52.341Z,46.60
2017-09-19T02:44:20.191Z,46.63
2017-09-19T02:46:47.930Z,46.71
2017-09-19T02:49:15.725Z,46.91
2017-09-19T02:51:43.504Z,46.79
2017-09-19T02:54:11.350Z,46.62
2017-09-19T02:56:39.182Z,47.07
2017-09-19T02:59:06.721Z,48.02
2017-09-19T03:01:34.341Z,48.08
2017-09-19T03:04:01.864Z,47.30
2017-09-19T03:06:29.455Z,47.45
2017-09-19T03:08:57.227Z,46.78
2017-09-19T03:11:25.951Z,46.80
2017-09-19T03:13:53.759Z,46.91
2017-09-19T03:16:22.439Z,47.43
2017-09-19T03:18:50.829Z,47.06
2017-09-19T03:21:18.682Z,47.03
2017-09-19T03:23:46.530Z,46.85
2017-09-19T03:26:14.171Z,47.17
2017-09-19T03:28:42.539Z,47.21
2017-09-19T03:31:10.361Z,47.10
2017-09-19T03:33:38.152Z,47.20
2017-09-19T03:36:06.790Z,47.57
2017-09-19T03:41:16.428Z,47.59
2017-09-19T03:43:44.122Z,47.63
2017-09-19T03:46:11.656Z,48.33
2017-09-19T03:48:39.216Z,47.71
2017-09-19T03:51:06.835Z,48.41
2017-09-19T03:53:34.426Z,48.90
2017-09-19T03:56:02.221Z,48.91
2017-09-19T03:58:30.007Z,49.01
2017-09-19T04:00:57.831Z,49.12
2017-09-19T04:03:25.421Z,49.02
2017-09-19T04:05:52.956Z,52.82
2017-09-19T04:08:20.585Z,49.14
2017-09-19T04:10:48.124Z,47.18
2017-09-19T04:13:15.925Z,45.75
2017-09-19T04:15:43.494Z,43.81
2017-09-19T04:18:11.040Z,42.53
2017-09-19T04:20:38.588Z,42.37
2017-09-19T04:23:06.172Z,41.61
2017-09-19T04:25:34.004Z,45.05
2017-09-19T04:28:01.537Z,46.49
2017-09-19T04:30:29.120Z,48.42
2017-09-19T04:32:56.868Z,48.29
2017-09-19T04:35:24.457Z,48.70
2017-09-19T04:37:52.183Z,49.02
2017-09-19T04:40:19.780Z,50.11
2017-09-19T04:42:47.388Z,48.63
2017-09-19T04:45:15.026Z,49.82
2017-09-19T04:47:42.644Z,49.62
2017-09-19T04:50:10.246Z,48.74
2017-09-19T04:52:37.997Z,50.59
2017-09-19T04:55:05.615Z,50.88
2017-09-19T04:57:33.145Z,50.66
2017-09-19T05:00:00.815Z,50.63
2017-09-19T05:02:28.422Z,49.37
2017-09-19T05:04:56.016Z,50.84
2017-09-19T05:07:25.194Z,51.19
2017-09-19T05:09:52.830Z,51.71
2017-09-19T05:12:20.368Z,51.40
2017-09-19T05:14:47.878Z,49.17
2017-09-19T05:17:16.034Z,49.47
2017-09-19T05:19:43.603Z,47.22
2017-09-19T05:22:11.190Z,47.19
2017-09-19T05:24:38.750Z,46.37
2017-09-19T05:27:07.305Z,46.97
2017-09-19T05:29:34.930Z,45.99
2017-09-19T05:32:02.624Z,46.33
2017-09-19T05:34:30.149Z,47.39
2017-09-19T05:36:57.756Z,46.47
2017-09-19T05:39:25.360Z,45.06
2017-09-19T05:41:52.904Z,47.45
2017-09-19T05:44:20.497Z,47.37
2017-09-19T05:46:48.559Z,48.00
2017-09-19T05:49:16.160Z,47.68
2017-09-19T05:51:43.690Z,47.88
2017-09-19T05:54:11.430Z,48.45
2017-09-19T05:56:39.615Z,48.35
2017-09-19T05:59:07.212Z,49.29
2017-09-19T06:01:34.796Z,47.93
2017-09-19T06:04:02.343Z,49.53
2017-09-19T06:06:29.918Z,49.11
2017-09-19T06:09:11.105Z,49.43
2017-09-19T06:11:39.599Z,48.89
2017-09-19T06:14:07.372Z,47.77
2017-09-19T06:16:35.088Z,47.01
2017-09-19T06:19:02.734Z,45.33
2017-09-19T06:21:30.539Z,43.54
2017-09-19T06:23:59.122Z,41.56
2017-09-19T06:26:26.803Z,40.01
2017-09-19T06:28:55.316Z,39.14
2017-09-19T06:31:22.926Z,39.97
2017-09-19T06:33:51.978Z,39.11
2017-09-19T06:36:19.574Z,38.40
2017-09-19T06:38:47.183Z,38.20
2017-09-19T06:41:15.095Z,38.17
2017-09-19T06:43:42.714Z,35.65
2017-09-19T06:46:10.328Z,36.73
2017-09-19T06:48:38.780Z,35.83
2017-09-19T06:51:08.394Z,36.22
2017-09-19T06:53:40.657Z,34.79
2017-09-19T06:56:15.531Z,33.75
2017-09-19T06:58:48.428Z,34.97
2017-09-19T07:22:18.546Z,33.06
2017-09-19T07:42:17.863Z,30.51
2017-09-19T07:44:51.801Z,29.32
2017-09-19T07:47:19.378Z,28.69
2017-09-19T07:49:50.775Z,29.48
2017-09-19T07:52:18.405Z,29.86
2017-09-19T07:54:46.460Z,30.55
2017-09-19T07:57:14.080Z,27.45
2017-09-19T07:59:41.716Z,27.57
2017-09-19T08:02:09.570Z,28.51
2017-09-19T08:04:37.240Z,26.88
2017-09-19T08:07:04.935Z,28.14
2017-09-19T08:09:32.617Z,26.72
2017-09-19T08:12:00.213Z,26.93
2017-09-19T08:14:27.781Z,26.78
2017-09-19T08:16:55.676Z,27.01
2017-09-19T08:19:23.351Z,26.52
2017-09-19T08:21:50.933Z,27.02
2017-09-19T08:24:19.503Z,25.95
2017-09-19T08:26:47.295Z,26.56
2017-09-19T08:29:15.895Z,26.68
2017-09-19T08:31:43.527Z,28.38
2017-09-19T08:34:11.147Z,27.02
2017-09-19T08:36:40.075Z,26.96
2017-09-19T08:39:08.465Z,27.86
2017-09-19T08:41:36.087Z,29.45
2017-09-19T08:44:03.735Z,29.25
2017-09-19T08:46:31.372Z,29.89
2017-09-19T08:48:58.984Z,30.99
2017-09-19T08:51:26.612Z,30.64
2017-09-19T08:53:54.256Z,29.98
2017-09-19T08:56:21.878Z,30.11
2017-09-19T08:58:50.032Z,29.89
2017-09-19T09:01:18.848Z,29.94
2017-09-19T09:03:46.523Z,29.65
2017-09-19T09:06:14.872Z,31.74
2017-09-19T09:08:42.837Z,31.20
2017-09-19T09:11:11.447Z,32.81
2017-09-19T09:13:39.093Z,32.28
2017-09-19T09:16:06.776Z,31.10
2017-09-19T09:18:34.358Z,30.08
2017-09-19T09:21:01.933Z,31.59
2017-09-19T09:23:29.594Z,30.14
2017-09-19T09:25:57.202Z,29.84
2017-09-19T09:28:24.836Z,30.01
2017-09-19T09:30:52.507Z,29.95
2017-09-19T09:33:20.114Z,29.73
2017-09-19T09:35:47.847Z,29.67
2017-09-19T09:38:15.548Z,30.46
2017-09-19T09:40:46.022Z,28.71
2017-09-19T09:43:16.548Z,28.12
2017-09-19T09:45:49.437Z,27.33
2017-09-19T09:48:19.359Z,27.15
2017-09-19T09:50:47.867Z,26.83
2017-09-19T09:53:16.376Z,26.55
2017-09-19T09:55:47.460Z,26.24
2017-09-19T09:58:18.353Z,25.90
2017-09-19T10:00:53.426Z,26.66
2017-09-19T10:03:28.728Z,27.16
2017-09-19T10:06:04.247Z,26.46
2017-09-19T10:08:56.027Z,26.29
2017-09-19T10:11:29.424Z,25.46
2017-09-19T10:13:57.007Z,25.54
2017-09-19T10:16:26.414Z,24.92
2017-09-19T10:18:53.976Z,24.93
2017-09-19T10:21:21.836Z,24.94
2017-09-19T10:23:49.626Z,25.61
2017-09-19T10:28:56.727Z,25.35
2017-09-19T10:31:51.291Z,25.72
2017-09-19T10:34:21.422Z,25.33
2017-09-19T10:37:17.319Z,26.19
2017-09-19T10:39:49.092Z,26.42
2017-09-19T10:42:19.063Z,25.72
2017-09-19T10:45:05.175Z,25.09
2017-09-19T11:07:13.648Z,28.44
2017-09-19T11:12:20.234Z,28.61
2017-09-19T11:18:17.893Z,28.58
2017-09-19T11:21:25.605Z,28.29
2017-09-19T11:33:59.001Z,27.84
2017-09-19T11:36:26.610Z,27.51
2017-09-19T11:38:55.683Z,28.48
2017-09-19T11:41:23.751Z,27.28
2017-09-19T11:43:51.392Z,26.97
2017-09-19T11:46:20.464Z,27.97
2017-09-19T11:48:49.686Z,27.47
2017-09-19T11:51:17.768Z,27.59
2017-09-19T11:53:45.543Z,27.97
2017-09-19T11:56:13.639Z,28.59
2017-09-19T11:58:41.210Z,29.35
2017-09-19T12:01:09.003Z,28.40
2017-09-19T12:03:36.950Z,28.06
2017-09-19T12:06:04.518Z,29.28
2017-09-19T12:08:32.975Z,29.02
2017-09-19T12:11:00.494Z,28.69
2017-09-19T12:13:28.235Z,28.36
2017-09-19T12:15:55.774Z,27.91
2017-09-19T12:18:23.566Z,28.94
2017-09-19T12:20:51.566Z,28.59
2017-09-19T12:23:19.247Z,28.61
2017-09-19T12:25:48.907Z,28.10
2017-09-19T12:28:17.102Z,27.97
2017-09-19T12:30:45.214Z,26.78
2017-09-19T12:33:13.002Z,27.35
2017-09-19T12:35:40.741Z,26.65
2017-09-19T12:38:09.280Z,25.80
2017-09-19T12:40:37.041Z,25.71
2017-09-19T12:43:04.687Z,25.70
2017-09-19T12:45:32.285Z,24.62
2017-09-19T12:47:59.909Z,24.33
2017-09-19T12:50:27.485Z,22.90
2017-09-19T12:52:55.138Z,22.52
2017-09-19T12:55:22.655Z,21.14
2017-09-19T12:57:51.124Z,20.58
2017-09-19T13:00:18.686Z,22.07
2017-09-19T13:02:46.463Z,20.03
2017-09-19T13:05:14.065Z,19.83
2017-09-19T13:07:41.670Z,19.89
2017-09-19T13:10:09.628Z,18.60
2017-09-19T13:12:37.150Z,18.30
2017-09-19T13:15:05.996Z,18.74
2017-09-19T13:17:33.514Z,18.79
2017-09-19T13:20:01.325Z,18.86
2017-09-19T13:22:28.954Z,18.90
2017-09-19T13:24:57.621Z,18.67
2017-09-19T13:27:25.436Z,18.92
2017-09-19T13:29:53.847Z,18.93
2017-09-19T13:32:33.305Z,18.60
2017-09-19T13:35:00.939Z,18.91
2017-09-19T13:37:28.968Z,17.51
2017-09-19T13:43:31.934Z,18.25
2017-09-19T13:53:08.127Z,17.83
2017-09-19T13:55:35.720Z,18.03
2017-09-19T13:58:03.698Z,17.43
2017-09-19T14:00:32.307Z,17.52
2017-09-19T14:03:00.560Z,17.51
2017-09-19T14:05:28.349Z,16.54
2017-09-19T14:07:57.078Z,15.56
2017-09-19T14:10:26.325Z,15.74
2017-09-19T14:22:04.930Z,14.45
2017-09-19T14:24:32.842Z,14.25
2017-09-19T14:27:01.192Z,14.27
2017-09-19T14:29:30.155Z,14.61
2017-09-19T14:32:13.271Z,13.92
2017-09-19T14:34:41.203Z,14.00
2017-09-19T14:37:37.547Z,14.30
2017-09-19T14:40:06.414Z,13.81
2017-09-19T14:42:35.132Z,14.02
2017-09-19T14:45:24.674Z,13.91
2017-09-19T14:47:58.407Z,14.10
2017-09-19T14:50:26.001Z,14.07
2017-09-19T14:52:53.734Z,13.88
2017-09-19T14:55:22.398Z,13.91
2017-09-19T14:57:50.071Z,14.41
2017-09-19T15:00:17.818Z,14.67
2017-09-19T15:02:46.242Z,14.77
2017-09-19T15:05:13.895Z,14.97
2017-09-19T15:07:41.567Z,14.87
2017-09-19T15:10:09.502Z,15.14
2017-09-19T15:12:37.041Z,15.13
2017-09-19T15:15:04.635Z,15.28
2017-09-19T15:17:32.226Z,15.24
2017-09-19T15:20:00.041Z,15.34
2017-09-19T15:22:27.743Z,15.28
2017-09-19T15:24:55.347Z,15.48
2017-09-19T15:27:22.960Z,15.88
2017-09-19T15:29:50.615Z,16.16
2017-09-19T15:32:18.192Z,16.22
2017-09-19T15:34:45.713Z,16.12
2017-09-19T15:37:13.275Z,16.11
2017-09-19T15:39:40.936Z,16.23
2017-09-19T15:42:08.516Z,16.24
2017-09-19T15:44:36.313Z,16.64
2017-09-19T15:47:03.908Z,16.95
2017-09-19T15:49:31.485Z,16.61
2017-09-19T15:51:59.238Z,16.60
2017-09-19T15:54:26.861Z,16.64
2017-09-19T15:56:54.751Z,17.03
2017-09-19T15:59:22.340Z,17.08
2017-09-19T16:01:50.879Z,17.22
2017-09-19T16:04:18.646Z,17.50
2017-09-19T16:06:46.264Z,17.27
2017-09-19T16:09:13.915Z,17.53
2017-09-19T16:11:41.508Z,17.61
2017-09-19T16:14:09.256Z,17.94
2017-09-19T16:16:36.944Z,18.26
2017-09-19T16:19:04.490Z,18.18
2017-09-19T16:21:32.005Z,18.19
2017-09-19T16:23:59.786Z,18.29
2017-09-19T16:26:27.416Z,18.23
2017-09-19T16:28:55.036Z,18.43
2017-09-19T16:31:22.670Z,18.58
2017-09-19T16:33:50.242Z,18.87
2017-09-19T16:36:18.401Z,18.57
2017-09-19T16:38:48.291Z,18.75
2017-09-19T16:41:15.964Z,18.80
2017-09-19T16:43:43.703Z,18.87
2017-09-19T16:46:11.790Z,19.05
2017-09-19T16:48:39.670Z,19.02
2017-09-19T16:51:08.619Z,19.08
2017-09-19T16:53:37.374Z,19.19
2017-09-19T16:56:06.837Z,19.37
2017-09-19T16:58:34.474Z,19.47
2017-09-19T17:01:05.992Z,19.61
2017-09-19T17:03:33.559Z,19.50
2017-09-19T17:06:03.048Z,19.54
2017-09-19T17:08:30.685Z,19.59
2017-09-19T17:10:58.622Z,20.01
2017-09-19T17:13:26.554Z,19.79
2017-09-19T17:15:54.826Z,19.98
2017-09-19T17:18:24.802Z,20.17
2017-09-19T17:20:55.275Z,20.33
2017-09-19T17:23:23.166Z,20.63
2017-09-19T17:25:52.024Z,20.71
2017-09-19T17:28:19.768Z,20.66
2017-09-19T17:30:49.087Z,21.16
2017-09-19T17:33:20.009Z,22.09
2017-09-19T17:35:49.516Z,21.78
2017-09-19T17:38:17.285Z,21.65
2017-09-19T17:40:45.237Z,21.53
2017-09-19T17:43:15.810Z,24.88
2017-09-19T17:45:43.355Z,29.40
2017-09-19T17:48:10.917Z,28.00
2017-09-19T17:50:38.487Z,26.22
2017-09-19T17:53:06.062Z,27.30
2017-09-19T17:55:33.836Z,29.48
2017-09-19T17:58:01.497Z,29.42
2017-09-19T18:00:29.190Z,30.87
2017-09-19T18:02:56.740Z,30.81
2017-09-19T18:05:24.297Z,34.27
2017-09-19T18:07:51.911Z,34.77
2017-09-19T18:10:19.533Z,33.60
2017-09-19T18:12:47.875Z,32.27
2017-09-19T18:15:15.515Z,32.33
2017-09-19T18:17:43.062Z,32.03
2017-09-19T18:20:10.672Z,32.71
2017-09-19T18:22:38.332Z,32.37
2017-09-19T18:25:05.973Z,33.17
2017-09-19T18:27:33.534Z,33.03
2017-09-19T18:30:01.146Z,34.49
2017-09-19T18:32:30.264Z,35.27
2017-09-19T18:34:57.801Z,36.30
2017-09-19T18:37:25.369Z,37.16
2017-09-19T18:39:52.975Z,38.12
2017-09-19T18:42:20.549Z,38.56
2017-09-19T18:44:48.126Z,38.39
2017-09-19T18:47:15.779Z,38.11
2017-09-19T18:49:43.369Z,38.32
2017-09-19T18:52:11.492Z,38.34
2017-09-19T18:54:39.704Z,37.98
2017-09-19T18:57:07.472Z,35.44
2017-09-19T18:59:35.071Z,36.19
2017-09-19T19:02:02.717Z,37.66
2017-09-19T19:04:30.246Z,38.16
2017-09-19T19:06:57.995Z,38.11
2017-09-19T19:09:25.630Z,36.92
2017-09-19T19:11:53.385Z,36.56
2017-09-19T19:14:20.977Z,38.46
2017-09-19T19:16:49.298Z,38.03
2017-09-19T19:19:17.082Z,38.48
2017-09-19T19:21:45.276Z,37.37
2017-09-19T19:24:13.435Z,34.54
2017-09-19T19:26:40.971Z,35.47
2017-09-19T19:29:08.818Z,35.88
2017-09-19T19:31:36.435Z,34.29
2017-09-19T19:34:04.048Z,32.68
2017-09-19T19:36:31.683Z,33.04
2017-09-19T19:38:59.303Z,33.12
2017-09-19T19:41:27.606Z,33.63
2017-09-19T19:43:55.219Z,33.56
2017-09-19T19:46:22.822Z,33.61
2017-09-19T19:48:50.450Z,33.04
2017-09-19T19:51:18.482Z,32.50
2017-09-19T19:53:46.133Z,33.62
2017-09-19T19:56:13.749Z,31.54
2017-09-19T19:58:41.403Z,29.29
2017-09-19T20:01:09.026Z,28.68
2017-09-19T20:03:36.635Z,28.50
2017-09-19T20:06:04.267Z,28.27
2017-09-19T20:08:32.111Z,27.95
2017-09-19T20:10:59.687Z,28.32
2017-09-19T20:13:27.833Z,28.39
2017-09-19T20:15:56.151Z,28.59
2017-09-19T20:18:23.773Z,28.52
2017-09-19T20:20:51.301Z,28.55
2017-09-19T20:23:18.964Z,28.44
2017-09-19T20:25:46.513Z,28.50
2017-09-19T20:28:14.105Z,28.64
2017-09-19T20:30:41.768Z,28.68
2017-09-19T20:33:09.360Z,28.66
2017-09-19T20:35:36.998Z,28.69
2017-09-19T20:38:04.681Z,28.71
2017-09-19T20:40:32.336Z,28.65
2017-09-19T20:42:59.925Z,28.85
2017-09-19T20:45:27.643Z,28.67
2017-09-19T20:47:55.203Z,29.15
2017-09-19T20:50:22.835Z,29.08
2017-09-19T20:52:50.447Z,28.96
2017-09-19T20:55:17.968Z,28.97
2017-09-19T20:57:45.527Z,28.91
2017-09-19T21:00:13.756Z,29.23
2017-09-19T21:02:40.742Z,29.50
2017-09-19T21:05:13.714Z,29.50
2017-09-19T21:07:46.910Z,29.50
2017-09-19T21:10:20.168Z,29.87
2017-09-19T21:12:53.242Z,29.77
2017-09-19T21:15:26.437Z,29.51
2017-09-19T21:17:59.705Z,29.65
2017-09-19T21:20:26.734Z,29.88
2017-09-19T21:22:55.246Z,29.77
2017-09-19T21:25:22.780Z,29.83
2017-09-19T21:27:50.383Z,29.85
2017-09-19T21:30:17.994Z,30.14
2017-09-19T21:32:45.675Z,30.14
2017-09-19T21:35:13.271Z,29.97
2017-09-19T21:37:40.852Z,29.93
2017-09-19T21:40:08.448Z,29.99
2017-09-19T21:42:36.014Z,29.96
2017-09-19T21:45:03.627Z,30.13
2017-09-19T21:47:31.212Z,30.06
2017-09-19T21:49:58.761Z,30.37
2017-09-19T21:52:26.330Z,30.13
2017-09-19T21:54:53.901Z,30.21
2017-09-19T21:57:21.787Z,30.32
2017-09-19T21:59:49.380Z,30.54
2017-09-19T22:02:17.007Z,30.73
2017-09-19T22:04:44.594Z,30.68
2017-09-19T22:07:12.186Z,30.75
2017-09-19T22:09:39.826Z,30.99
2017-09-19T22:12:07.431Z,31.42
2017-09-19T22:14:34.981Z,31.42
2017-09-19T22:17:02.612Z,31.37
2017-09-19T22:19:30.252Z,31.53
2017-09-19T22:21:57.867Z,31.53
2017-09-19T22:24:25.473Z,31.41
2017-09-19T22:26:53.068Z,31.57
2017-09-19T22:29:20.692Z,31.62
2017-09-19T22:31:48.355Z,31.92
2017-09-19T22:34:15.890Z,31.91
2017-09-19T22:36:43.441Z,32.13
2017-09-19T22:39:11.009Z,32.15
2017-09-19T22:41:38.602Z,32.38
2017-09-19T22:44:06.365Z,32.34
2017-09-19T22:46:33.944Z,32.40
2017-09-19T22:49:01.502Z,32.87
2017-09-19T22:51:29.035Z,32.78
2017-09-19T22:53:56.606Z,32.86
2017-09-19T22:56:24.171Z,32.79
2017-09-19T22:58:51.779Z,33.01
2017-09-19T23:01:19.377Z,32.81
2017-09-19T23:03:46.953Z,32.74
2017-09-19T23:06:14.617Z,32.76
2017-09-19T23:08:42.225Z,32.69
2017-09-19T23:11:09.815Z,32.84
2017-09-19T23:13:37.585Z,33.45
2017-09-19T23:16:05.180Z,33.51
2017-09-19T23:18:32.722Z,33.75
2017-09-19T23:21:00.342Z,33.99
2017-09-19T23:23:27.921Z,34.68
2017-09-19T23:25:55.482Z,34.60
2017-09-19T23:28:23.266Z,34.57
2017-09-19T23:30:50.913Z,34.66
2017-09-19T23:33:18.478Z,35.14
2017-09-19T23:35:46.145Z,35.23
2017-09-19T23:38:13.874Z,35.37
2017-09-19T23:40:41.547Z,35.24
2017-09-19T23:43:09.152Z,35.51
2017-09-19T23:45:36.788Z,35.57
2017-09-19T23:48:04.538Z,35.72
2017-09-19T23:50:32.174Z,35.91
2017-09-19T23:52:59.916Z,36.23
2017-09-19T23:55:27.542Z,36.61
2017-09-19T23:57:55.141Z,36.51
